CheckWX is a tool to help pilots better visualize weather data.  It is not intended as a substitute for an official pre-flight weather briefing.

12:24:48 UTC

EGCC TAF
Manchester Airport
Manchester, United Kingdom
TAF EGCC 221102Z 2212/2318 22014KT 9999 FEW012 BKN030 TEMPO 2212/2218 24017G27KT TEMPO 2215/2218 6000 RA BKN012 BECMG 2218/2221 28006KT BECMG 2221/2224 CAVOK

Mar-22@
12:00 UTC

Mar-22 @ 12:00 UTC

Mar-22@
18:00 UTC

Mar-22 @ 18:00 UTC

TAF EGCC 221102Z 2212/2318 22014KT 9999 FEW012 BKN030
Wind
  • 220° at 14 KTS
Cloud Levels
  • Few at 1,200' AGL
  • Broken at 3,000' AGL

Mar-22@
12:00 UTC

Mar-22 @ 12:00 UTC

Mar-22@
18:00 UTC

Mar-22 @ 18:00 UTC

TEMPO 2212/2218 24017G27KT

Temporary

Temporary Changes expected for less than half the time period

Wind
  • 240° at 17 KTS
  • {Gusting to 27 KTS

Mar-22@
15:00 UTC

Mar-22 @ 15:00 UTC

Mar-22@
18:00 UTC

Mar-22 @ 18:00 UTC

TEMPO 2215/2218 6000 RA BKN012

Temporary

Temporary Changes expected for less than half the time period

Conditions
Rain
Cloud Levels
  • Broken at 1,200' AGL

Mar-22@
18:00 UTC

Mar-22 @ 18:00 UTC

Mar-22@
21:00 UTC

Mar-22 @ 21:00 UTC

BECMG 2218/2221 28006KT

Becoming

Becoming Conditions expected by Fri, Mar 22, 2019 @ 21:00 UTC

Wind
  • 280° at 6 KTS
Cloud Levels
  • Few at 1,200' AGL
  • Broken at 3,000' AGL

Mar-22@
21:00 UTC

Mar-22 @ 21:00 UTC

Mar-23@
18:00 UTC

Mar-23 @ 18:00 UTC

BECMG 2221/2224 CAVOK

Becoming

Becoming Conditions expected by Sat, Mar 23, 2019 @ 00:00 UTC

Wind
  • 280° at 6 KTS
Conditions
No significant weather
Cloud Levels
  • No significant clouds